Time;durP1;ratioP1;P1;durP2;ratioP2;P2;SDS_P1;SDS_P2;PMS_P1;PMS_P2;Temp;Humidity;BMP_temperature;BMP_pressure;BME280_temperature;BME280_humidity;BME280_pressure;Samples;Min_cycle;Max_cycle;Signal;HPM_P1;HPM_P2
2021/06/21 00:01:25;;;;;;;16.70;6.07;;;;;;;;;;10525935;28;20215;-68
2021/06/21 00:06:27;;;;;;;16.43;5.90;;;;;;;;;;10528766;28;20279;-70
2021/06/21 00:11:31;;;;;;;14.03;5.60;;;;;;;;;;10524562;28;20333;-69
2021/06/21 00:16:34;;;;;;;13.57;5.27;;;;;;;;;;10523080;28;20214;-69
2021/06/21 00:21:37;;;;;;;12.70;4.87;;;;;;;;;;10537124;28;20253;-69
2021/06/21 00:26:40;;;;;;;15.17;4.20;;;;;;;;;;10535981;28;20422;-69
2021/06/21 00:31:43;;;;;;;11.10;3.70;;;;;;;;;;10534468;28;20230;-70
2021/06/21 00:36:46;;;;;;;8.90;4.00;;;;;;;;;;10534123;28;20716;-72
2021/06/21 00:41:50;;;;;;;16.97;5.30;;;;;;;;;;10523064;28;20274;-70
2021/06/21 00:46:53;;;;;;;16.70;5.90;;;;;;;;;;10533416;28;20195;-70
2021/06/21 00:51:57;;;;;;;14.97;5.97;;;;;;;;;;10531916;28;20220;-71
2021/06/21 00:57:00;;;;;;;18.10;6.33;;;;;;;;;;10533139;28;20573;-68
2021/06/21 01:02:03;;;;;;;17.97;6.63;;;;;;;;;;10530193;28;20188;-70
2021/06/21 01:07:06;;;;;;;17.17;6.97;;;;;;;;;;10534439;28;20219;-68
2021/06/21 01:12:13;;;;;;;19.27;6.83;;;;;;;;;;10528593;28;20279;-68
2021/06/21 01:17:18;;;;;;;18.60;6.90;;;;;;;;;;10534427;28;20265;-70
2021/06/21 01:22:34;;;;;;;17.77;6.30;;;;;;;;;;10534932;28;20717;-69
2021/06/21 01:27:49;;;;;;;16.47;5.70;;;;;;;;;;10530116;28;20302;-69
2021/06/21 01:32:54;;;;;;;16.07;5.43;;;;;;;;;;10529150;28;20207;-70
2021/06/21 01:37:59;;;;;;;18.47;5.40;;;;;;;;;;10529029;28;20234;-70
2021/06/21 01:43:03;;;;;;;12.23;4.97;;;;;;;;;;10530652;28;20216;-71
2021/06/21 01:48:08;;;;;;;13.40;5.10;;;;;;;;;;10534097;28;20215;-70
2021/06/21 01:53:11;;;;;;;15.67;5.77;;;;;;;;;;10525510;28;20207;-69
2021/06/21 01:58:14;;;;;;;19.00;6.20;;;;;;;;;;10532258;28;20219;-71
2021/06/21 02:03:19;;;;;;;16.73;6.27;;;;;;;;;;10529819;28;20196;-70
2021/06/21 02:08:22;;;;;;;15.27;5.60;;;;;;;;;;10532289;28;20228;-69
2021/06/21 02:13:25;;;;;;;17.30;6.13;;;;;;;;;;10528824;28;20556;-68
2021/06/21 02:18:30;;;;;;;13.43;5.03;;;;;;;;;;10531265;28;20251;-68
2021/06/21 02:23:33;;;;;;;16.20;5.50;;;;;;;;;;10529944;28;20521;-68
2021/06/21 02:28:36;;;;;;;15.00;5.07;;;;;;;;;;10526937;28;20223;-69
2021/06/21 02:33:40;;;;;;;13.60;5.30;;;;;;;;;;10532634;28;20287;-69
2021/06/21 02:38:45;;;;;;;10.20;4.80;;;;;;;;;;10523910;28;20298;-70
2021/06/21 02:43:48;;;;;;;15.47;4.90;;;;;;;;;;10525258;28;20629;-69
2021/06/21 02:48:52;;;;;;;13.03;4.70;;;;;;;;;;10529383;28;20753;-70
2021/06/21 02:53:59;;;;;;;14.33;4.67;;;;;;;;;;10528834;28;20215;-70
2021/06/21 02:59:04;;;;;;;12.83;4.53;;;;;;;;;;10526769;28;20310;-70
2021/06/21 03:04:09;;;;;;;12.57;4.53;;;;;;;;;;10531505;28;20196;-70
2021/06/21 03:09:12;;;;;;;11.27;4.77;;;;;;;;;;10526466;28;20215;-69
2021/06/21 03:14:15;;;;;;;14.03;3.90;;;;;;;;;;10529507;28;20215;-70
2021/06/21 03:19:19;;;;;;;14.13;4.40;;;;;;;;;;10540294;28;20544;-71
2021/06/21 03:24:22;;;;;;;11.17;4.50;;;;;;;;;;10537083;28;20244;-68
2021/06/21 03:29:25;;;;;;;13.73;4.27;;;;;;;;;;10527347;28;20671;-70
2021/06/21 03:34:29;;;;;;;13.80;4.97;;;;;;;;;;10528969;28;20223;-73
2021/06/21 03:39:31;;;;;;;13.40;4.33;;;;;;;;;;10526427;28;20227;-70
2021/06/21 03:44:34;;;;;;;11.90;4.00;;;;;;;;;;10528966;28;20269;-70
2021/06/21 03:49:38;;;;;;;12.43;4.17;;;;;;;;;;10524935;28;20207;-73
2021/06/21 03:54:41;;;;;;;10.23;3.27;;;;;;;;;;10526011;28;20211;-72
2021/06/21 03:59:43;;;;;;;10.63;3.77;;;;;;;;;;10527434;28;20230;-72
2021/06/21 04:04:47;;;;;;;10.70;3.47;;;;;;;;;;10523872;28;20663;-71
2021/06/21 04:09:49;;;;;;;10.70;3.40;;;;;;;;;;10527996;28;20264;-70
2021/06/21 04:14:52;;;;;;;12.20;3.30;;;;;;;;;;10523940;28;20269;-73
2021/06/21 04:19:56;;;;;;;11.17;3.10;;;;;;;;;;10520126;28;20690;-72
2021/06/21 04:24:59;;;;;;;11.30;3.07;;;;;;;;;;10538031;28;20267;-71
2021/06/21 04:30:01;;;;;;;13.03;3.17;;;;;;;;;;10532090;28;20212;-72
2021/06/21 04:35:07;;;;;;;11.10;2.80;;;;;;;;;;10525919;28;20215;-71
2021/06/21 04:40:10;;;;;;;10.83;2.67;;;;;;;;;;10525675;28;20203;-72
2021/06/21 04:45:14;;;;;;;12.63;2.90;;;;;;;;;;10528346;28;20220;-71
2021/06/21 04:50:18;;;;;;;9.50;3.20;;;;;;;;;;10520700;28;20642;-71
2021/06/21 04:55:22;;;;;;;11.57;3.03;;;;;;;;;;10527246;28;20212;-72
2021/06/21 05:00:26;;;;;;;10.63;2.80;;;;;;;;;;10526986;28;20226;-73
2021/06/21 05:05:30;;;;;;;8.53;2.73;;;;;;;;;;10527835;28;20184;-73
2021/06/21 05:10:33;;;;;;;10.90;2.87;;;;;;;;;;10537042;28;20239;-71
2021/06/21 05:15:35;;;;;;;12.63;2.83;;;;;;;;;;10530890;28;20243;-71
2021/06/21 05:20:39;;;;;;;8.17;2.57;;;;;;;;;;10525795;28;20246;-72
2021/06/21 05:25:42;;;;;;;11.52;3.00;;;;;;;;;;10531883;28;20203;-71
2021/06/21 05:30:44;;;;;;;10.27;2.90;;;;;;;;;;10531126;28;20211;-73
2021/06/21 05:35:48;;;;;;;9.87;2.70;;;;;;;;;;10527004;28;20753;-73
2021/06/21 05:40:50;;;;;;;8.37;2.23;;;;;;;;;;10531262;28;20717;-72
2021/06/21 05:45:53;;;;;;;17.20;3.13;;;;;;;;;;10526134;28;20199;-73
2021/06/21 05:51:00;;;;;;;7.20;2.70;;;;;;;;;;10528407;28;20605;-73
2021/06/21 05:56:03;;;;;;;7.87;2.40;;;;;;;;;;10525226;28;20195;-73
2021/06/21 06:01:05;;;;;;;8.50;2.47;;;;;;;;;;10526387;28;20299;-73
2021/06/21 06:06:09;;;;;;;8.70;2.55;;;;;;;;;;10530745;28;20199;-74
2021/06/21 06:11:12;;;;;;;12.35;2.40;;;;;;;;;;10531490;28;20264;-73
2021/06/21 06:16:14;;;;;;;10.68;2.22;;;;;;;;;;10535390;28;20647;-73
2021/06/21 06:21:18;;;;;;;7.68;2.30;;;;;;;;;;10532606;28;20277;-67
2021/06/21 06:26:21;;;;;;;10.02;2.20;;;;;;;;;;10533374;28;20275;-67
2021/06/21 06:31:23;;;;;;;7.95;2.20;;;;;;;;;;10526674;28;20685;-69
2021/06/21 06:36:27;;;;;;;8.50;2.40;;;;;;;;;;10527766;28;20705;-69
2021/06/21 06:41:30;;;;;;;10.95;2.53;;;;;;;;;;10514508;28;20207;-69
2021/06/21 06:46:33;;;;;;;7.38;2.08;;;;;;;;;;10523319;28;20594;-70
2021/06/21 06:51:41;;;;;;;11.52;2.35;;;;;;;;;;10521285;28;20207;-70
2021/06/21 06:56:59;;;;;;;9.45;2.30;;;;;;;;;;10523803;28;20200;-70
2021/06/21 07:02:05;;;;;;;9.50;2.30;;;;;;;;;;10519667;28;20219;-70
2021/06/21 07:07:11;;;;;;;5.68;1.90;;;;;;;;;;10522456;28;20212;-70
2021/06/21 07:12:13;;;;;;;7.22;1.80;;;;;;;;;;10527534;28;20243;-70
2021/06/21 07:17:16;;;;;;;6.72;2.10;;;;;;;;;;10531465;28;20242;-70
2021/06/21 07:22:20;;;;;;;9.38;1.80;;;;;;;;;;10520366;28;20271;-70
2021/06/21 07:27:22;;;;;;;9.95;2.03;;;;;;;;;;10521718;28;20308;-70
2021/06/21 07:32:25;;;;;;;12.15;2.30;;;;;;;;;;10518872;28;20204;-69
2021/06/21 07:37:29;;;;;;;7.75;1.80;;;;;;;;;;10520306;28;20688;-70
2021/06/21 07:42:32;;;;;;;9.00;1.80;;;;;;;;;;10526285;28;20192;-71
2021/06/21 07:47:34;;;;;;;7.32;1.75;;;;;;;;;;10522283;28;20302;-70
2021/06/21 07:52:38;;;;;;;9.40;2.25;;;;;;;;;;10517363;28;20285;-70
2021/06/21 07:57:41;;;;;;;8.48;1.70;;;;;;;;;;10512782;28;20204;-68
2021/06/21 08:02:43;;;;;;;7.65;2.00;;;;;;;;;;10516533;28;20720;-70
2021/06/21 08:07:47;;;;;;;7.15;2.20;;;;;;;;;;10518971;28;20226;-70
2021/06/21 08:12:50;;;;;;;7.50;2.13;;;;;;;;;;10523854;28;20285;-70
2021/06/21 08:17:53;;;;;;;8.32;2.15;;;;;;;;;;10519609;28;20267;-70
2021/06/21 08:22:57;;;;;;;7.70;2.20;;;;;;;;;;10528245;28;20274;-69
2021/06/21 08:28:00;;;;;;;8.88;2.17;;;;;;;;;;10519749;28;20222;-71
2021/06/21 08:33:02;;;;;;;8.77;3.17;;;;;;;;;;10509640;28;20207;-70
2021/06/21 08:38:06;;;;;;;9.50;2.20;;;;;;;;;;10518055;28;20315;-71
2021/06/21 08:43:09;;;;;;;6.72;2.22;;;;;;;;;;10543414;28;20215;-69
2021/06/21 08:48:12;;;;;;;8.88;2.40;;;;;;;;;;10530343;28;20219;-70
2021/06/21 08:53:16;;;;;;;7.85;2.28;;;;;;;;;;10534468;28;20322;-71
2021/06/21 08:58:19;;;;;;;6.90;2.50;;;;;;;;;;10539950;28;20302;-71
2021/06/21 09:03:21;;;;;;;8.48;2.10;;;;;;;;;;10531783;28;20278;-71
2021/06/21 09:08:25;;;;;;;7.07;2.47;;;;;;;;;;10520819;28;20340;-70
2021/06/21 09:13:32;;;;;;;7.25;2.33;;;;;;;;;;10531264;28;20211;-71
2021/06/21 09:18:36;;;;;;;7.68;2.28;;;;;;;;;;10529732;28;20694;-71
2021/06/21 09:23:39;;;;;;;5.25;2.47;;;;;;;;;;10535520;28;20197;-72
2021/06/21 09:28:42;;;;;;;8.70;2.60;;;;;;;;;;10515154;28;20277;-70
2021/06/21 09:33:45;;;;;;;7.88;2.85;;;;;;;;;;10517331;28;20203;-70
2021/06/21 09:39:08;;;;;;;6.35;2.45;;;;;;;;;;10530460;28;20238;-70
2021/06/21 09:44:26;;;;;;;10.32;3.00;;;;;;;;;;10526036;28;20278;-71
2021/06/21 09:49:28;;;;;;;9.40;2.72;;;;;;;;;;10525583;28;20301;-72
2021/06/21 09:54:34;;;;;;;6.97;2.85;;;;;;;;;;10528152;28;20215;-70
2021/06/21 09:59:46;;;;;;;7.63;3.65;;;;;;;;;;10538743;28;20745;-71
2021/06/21 10:04:49;;;;;;;9.43;2.95;;;;;;;;;;10533077;28;20247;-71
2021/06/21 10:09:53;;;;;;;7.45;3.08;;;;;;;;;;10515966;28;20240;-69
2021/06/21 10:14:56;;;;;;;7.70;2.72;;;;;;;;;;10527155;28;20943;-73
2021/06/21 10:19:59;;;;;;;7.68;2.67;;;;;;;;;;10524364;28;20203;-73
2021/06/21 10:25:04;;;;;;;6.35;2.70;;;;;;;;;;10539979;28;20191;-73
2021/06/21 10:30:09;;;;;;;7.18;2.92;;;;;;;;;;10531194;28;20230;-73
2021/06/21 10:35:12;;;;;;;7.57;3.00;;;;;;;;;;10527854;28;20260;-73
2021/06/21 10:40:17;;;;;;;6.78;2.63;;;;;;;;;;10526891;28;20237;-72
2021/06/21 10:45:21;;;;;;;8.20;2.92;;;;;;;;;;10527523;28;20195;-72
2021/06/21 10:50:26;;;;;;;7.85;2.60;;;;;;;;;;10517141;28;20290;-73
2021/06/21 10:55:35;;;;;;;5.68;2.70;;;;;;;;;;10523435;28;20222;-73
2021/06/21 11:00:39;;;;;;;7.32;3.33;;;;;;;;;;10517655;28;20670;-73
2021/06/21 11:05:42;;;;;;;8.07;2.83;;;;;;;;;;10520280;28;20191;-71
2021/06/21 11:10:46;;;;;;;6.35;2.58;;;;;;;;;;10501740;28;20273;-74
2021/06/21 11:16:04;;;;;;;5.32;2.50;;;;;;;;;;10520981;28;20329;-71
2021/06/21 11:21:12;;;;;;;11.15;2.90;;;;;;;;;;10524181;28;20244;-72
2021/06/21 11:26:16;;;;;;;8.10;2.65;;;;;;;;;;10529476;28;20258;-73
2021/06/21 11:31:23;;;;;;;6.47;2.58;;;;;;;;;;10521332;28;20226;-71
2021/06/21 11:36:36;;;;;;;7.45;2.78;;;;;;;;;;10523766;28;20223;-72
2021/06/21 11:41:50;;;;;;;8.32;2.65;;;;;;;;;;10547695;27;20219;-71
2021/06/21 11:46:53;;;;;;;7.93;2.28;;;;;;;;;;10519395;28;20527;-72
2021/06/21 11:51:58;;;;;;;7.90;2.55;;;;;;;;;;10523503;28;20369;-72
2021/06/21 11:57:01;;;;;;;9.15;2.50;;;;;;;;;;10523027;28;20256;-73
2021/06/21 12:02:08;;;;;;;7.32;2.55;;;;;;;;;;10522258;28;20700;-73
2021/06/21 12:07:27;;;;;;;8.15;2.60;;;;;;;;;;10517976;28;20187;-73
2021/06/21 12:12:33;;;;;;;7.07;2.42;;;;;;;;;;10522061;28;20203;-73
2021/06/21 12:17:35;;;;;;;10.63;2.78;;;;;;;;;;10522664;28;20264;-73
2021/06/21 12:22:39;;;;;;;6.18;2.45;;;;;;;;;;10522164;28;20324;-73
2021/06/21 12:27:43;;;;;;;8.23;2.58;;;;;;;;;;10515363;28;20567;-72
2021/06/21 12:32:45;;;;;;;9.90;2.78;;;;;;;;;;10522309;28;20203;-73
2021/06/21 12:37:48;;;;;;;7.60;2.40;;;;;;;;;;10527966;28;20647;-72
2021/06/21 12:42:52;;;;;;;8.73;2.50;;;;;;;;;;10526332;28;20227;-72
2021/06/21 12:47:57;;;;;;;7.32;2.00;;;;;;;;;;10521416;28;20216;-72
2021/06/21 12:53:00;;;;;;;7.43;2.28;;;;;;;;;;10521749;28;20200;-73
2021/06/21 12:58:05;;;;;;;8.77;3.10;;;;;;;;;;10539745;28;20284;-72
2021/06/21 13:03:12;;;;;;;7.07;2.10;;;;;;;;;;10522800;28;20203;-73
2021/06/21 13:08:16;;;;;;;8.25;2.13;;;;;;;;;;10522312;28;20231;-72
2021/06/21 13:13:20;;;;;;;7.35;2.10;;;;;;;;;;10527233;28;20732;-73
2021/06/21 13:18:22;;;;;;;6.22;2.45;;;;;;;;;;10526731;28;20276;-72
2021/06/21 13:23:25;;;;;;;8.52;2.47;;;;;;;;;;10522875;28;20306;-72
2021/06/21 13:28:33;;;;;;;8.13;2.28;;;;;;;;;;10524609;28;20751;-71
2021/06/21 13:33:44;;;;;;;9.70;2.10;;;;;;;;;;10536796;28;20212;-72
2021/06/21 13:38:51;;;;;;;6.72;2.28;;;;;;;;;;10520900;28;20777;-73
2021/06/21 13:43:55;;;;;;;12.48;2.20;;;;;;;;;;10531876;28;20259;-74
2021/06/21 13:49:05;;;;;;;9.80;2.17;;;;;;;;;;10532262;28;20243;-71
2021/06/21 13:54:08;;;;;;;10.55;2.05;;;;;;;;;;10526880;28;20306;-69
2021/06/21 13:59:12;;;;;;;7.57;2.33;;;;;;;;;;10524066;28;20277;-72
2021/06/21 14:04:15;;;;;;;9.50;2.47;;;;;;;;;;10530097;28;20332;-72
2021/06/21 14:09:18;;;;;;;11.02;2.20;;;;;;;;;;10527975;28;20215;-72
2021/06/21 14:14:23;;;;;;;8.23;2.30;;;;;;;;;;10530184;28;20214;-72
2021/06/21 14:19:25;;;;;;;8.68;2.25;;;;;;;;;;10529214;28;20581;-73
2021/06/21 14:24:28;;;;;;;10.18;2.25;;;;;;;;;;10527037;28;20639;-72
2021/06/21 14:29:32;;;;;;;9.85;2.50;;;;;;;;;;10525643;28;20224;-72
2021/06/21 14:34:34;;;;;;;9.32;2.38;;;;;;;;;;10530475;28;20226;-70
2021/06/21 14:39:37;;;;;;;7.32;2.20;;;;;;;;;;10526744;28;20239;-72
2021/06/21 14:44:40;;;;;;;8.50;2.42;;;;;;;;;;10533813;28;20612;-72
2021/06/21 14:49:53;;;;;;;9.55;2.40;;;;;;;;;;10523942;28;20295;-72
2021/06/21 14:54:55;;;;;;;9.52;2.70;;;;;;;;;;10521319;28;20213;-72
2021/06/21 14:59:59;;;;;;;11.50;3.20;;;;;;;;;;10525946;28;20243;-71
2021/06/21 15:05:02;;;;;;;10.43;2.35;;;;;;;;;;10523972;28;20207;-72
2021/06/21 15:10:05;;;;;;;10.75;2.30;;;;;;;;;;10526978;28;20261;-70
2021/06/21 15:15:11;;;;;;;11.82;2.55;;;;;;;;;;10515797;28;20220;-73
2021/06/21 15:20:18;;;;;;;7.70;2.58;;;;;;;;;;10525563;28;20292;-73
2021/06/21 15:25:22;;;;;;;9.23;2.50;;;;;;;;;;10520437;28;20187;-71
2021/06/21 15:30:26;;;;;;;8.05;2.20;;;;;;;;;;10527224;28;20212;-73
2021/06/21 15:35:30;;;;;;;13.40;2.78;;;;;;;;;;10527403;28;20675;-71
2021/06/21 15:40:38;;;;;;;11.90;2.88;;;;;;;;;;10520597;28;20291;-71
2021/06/21 15:45:42;;;;;;;13.32;3.47;;;;;;;;;;10527054;28;20314;-72
2021/06/21 15:50:45;;;;;;;9.68;2.75;;;;;;;;;;10525182;28;20302;-72
2021/06/21 15:55:47;;;;;;;9.18;2.35;;;;;;;;;;10525182;28;20374;-70
2021/06/21 16:00:51;;;;;;;8.50;2.33;;;;;;;;;;10522894;28;20215;-73
2021/06/21 16:05:55;;;;;;;9.32;2.13;;;;;;;;;;10518823;28;20191;-73
2021/06/21 16:10:57;;;;;;;11.50;2.22;;;;;;;;;;10515595;28;20298;-73
2021/06/21 16:16:01;;;;;;;10.98;2.78;;;;;;;;;;10512804;28;20390;-72
2021/06/21 16:21:04;;;;;;;11.00;2.45;;;;;;;;;;10518418;28;20996;-73
2021/06/21 16:26:07;;;;;;;9.52;2.47;;;;;;;;;;10515287;28;20655;-72
2021/06/21 16:31:11;;;;;;;11.90;2.22;;;;;;;;;;10519474;28;20235;-71
2021/06/21 16:36:13;;;;;;;10.20;2.70;;;;;;;;;;10525432;28;20218;-73
2021/06/21 16:41:16;;;;;;;11.20;2.85;;;;;;;;;;10526635;28;20232;-73
2021/06/21 16:46:20;;;;;;;12.02;2.40;;;;;;;;;;10540949;28;20218;-71
2021/06/21 16:51:23;;;;;;;9.70;2.40;;;;;;;;;;10527066;28;20231;-73
2021/06/21 16:56:25;;;;;;;8.77;2.65;;;;;;;;;;10520149;28;20218;-70
2021/06/21 17:01:30;;;;;;;12.63;2.25;;;;;;;;;;10530712;28;20674;-71
2021/06/21 17:06:32;;;;;;;12.25;3.58;;;;;;;;;;10533757;28;20522;-74
2021/06/21 17:11:35;;;;;;;11.50;2.70;;;;;;;;;;10533892;28;20691;-74
2021/06/21 17:16:39;;;;;;;7.82;2.00;;;;;;;;;;10535426;28;20298;-73
2021/06/21 17:21:42;;;;;;;11.20;2.65;;;;;;;;;;10530271;28;20211;-73
2021/06/21 17:26:44;;;;;;;10.27;2.50;;;;;;;;;;10533623;28;20601;-73
2021/06/21 17:31:48;;;;;;;9.27;2.33;;;;;;;;;;10530498;28;20302;-73
2021/06/21 17:36:51;;;;;;;13.95;3.95;;;;;;;;;;10534437;28;20215;-73
2021/06/21 17:41:54;;;;;;;7.95;3.05;;;;;;;;;;10531940;28;20239;-72
2021/06/21 17:46:58;;;;;;;9.10;2.80;;;;;;;;;;10527722;28;20187;-72
2021/06/21 17:52:00;;;;;;;9.35;2.53;;;;;;;;;;10532561;28;20637;-72
2021/06/21 17:57:03;;;;;;;9.00;2.40;;;;;;;;;;10531860;28;20694;-72
2021/06/21 18:02:08;;;;;;;10.20;2.90;;;;;;;;;;10533637;28;20604;-69
2021/06/21 18:07:11;;;;;;;8.93;2.50;;;;;;;;;;10532166;28;20278;-70
2021/06/21 18:12:14;;;;;;;8.38;2.55;;;;;;;;;;10528946;28;20196;-73
2021/06/21 18:17:18;;;;;;;8.68;2.22;;;;;;;;;;10532856;28;20219;-68
2021/06/21 18:22:20;;;;;;;11.25;2.88;;;;;;;;;;10534255;28;20278;-68
2021/06/21 18:27:23;;;;;;;7.20;2.20;;;;;;;;;;10534401;28;20277;-67
2021/06/21 18:32:27;;;;;;;8.38;2.60;;;;;;;;;;10530974;28;20570;-66
2021/06/21 18:37:29;;;;;;;9.32;3.03;;;;;;;;;;10528752;28;20294;-67
2021/06/21 18:42:32;;;;;;;13.05;3.63;;;;;;;;;;10528834;28;20539;-68
2021/06/21 18:47:36;;;;;;;7.07;2.60;;;;;;;;;;10534208;28;20237;-74
2021/06/21 18:52:39;;;;;;;11.18;2.85;;;;;;;;;;10530595;28;20192;-73
2021/06/21 18:57:42;;;;;;;10.27;4.07;;;;;;;;;;10530213;28;20283;-72
2021/06/21 19:02:46;;;;;;;11.55;2.75;;;;;;;;;;10524609;28;20199;-74
2021/06/21 19:07:49;;;;;;;10.70;2.60;;;;;;;;;;10530834;28;20583;-73
2021/06/21 19:12:52;;;;;;;9.82;2.75;;;;;;;;;;10532321;28;20204;-71
2021/06/21 19:17:57;;;;;;;14.70;3.78;;;;;;;;;;10529538;28;20239;-75
2021/06/21 19:23:02;;;;;;;8.80;2.50;;;;;;;;;;10530534;28;20231;-73
2021/06/21 19:28:07;;;;;;;9.65;2.60;;;;;;;;;;10531065;28;20211;-73
2021/06/21 19:33:11;;;;;;;9.63;2.60;;;;;;;;;;10538377;28;20199;-73
2021/06/21 19:38:13;;;;;;;12.10;2.17;;;;;;;;;;10539873;28;20223;-72
2021/06/21 19:43:16;;;;;;;4.68;1.98;;;;;;;;;;10546529;28;20533;-74
2021/06/21 19:48:20;;;;;;;11.60;2.60;;;;;;;;;;10546854;28;20280;-73
2021/06/21 19:53:23;;;;;;;7.95;2.58;;;;;;;;;;10527056;28;20977;-74
2021/06/21 19:58:27;;;;;;;9.77;2.35;;;;;;;;;;10533710;28;20219;-72
2021/06/21 20:03:31;;;;;;;12.52;2.75;;;;;;;;;;10528179;28;20570;-73
2021/06/21 20:08:33;;;;;;;8.63;2.58;;;;;;;;;;10528080;28;20837;-73
2021/06/21 20:13:36;;;;;;;13.38;3.40;;;;;;;;;;10529894;28;20627;-74
2021/06/21 20:18:40;;;;;;;11.55;3.40;;;;;;;;;;10526990;28;20230;-73
2021/06/21 20:23:42;;;;;;;9.73;2.78;;;;;;;;;;10539447;28;20205;-73
2021/06/21 20:28:45;;;;;;;9.88;3.15;;;;;;;;;;10524300;28;20212;-73
2021/06/21 20:33:51;;;;;;;16.77;4.20;;;;;;;;;;10530997;28;20202;-73
2021/06/21 20:38:54;;;;;;;23.02;10.63;;;;;;;;;;10534889;28;20284;-72
2021/06/21 20:43:56;;;;;;;11.73;3.55;;;;;;;;;;10542600;28;20564;-73
2021/06/21 20:49:00;;;;;;;13.63;3.93;;;;;;;;;;10537732;28;20245;-70
2021/06/21 20:54:03;;;;;;;11.03;4.43;;;;;;;;;;10538388;28;20511;-72
2021/06/21 20:59:06;;;;;;;12.13;3.80;;;;;;;;;;10541643;28;20232;-73
2021/06/21 21:04:10;;;;;;;15.85;4.63;;;;;;;;;;10537485;28;20288;-70
2021/06/21 21:09:12;;;;;;;12.70;4.00;;;;;;;;;;10542205;28;20234;-68
2021/06/21 21:14:15;;;;;;;4.80;2.20;;;;;;;;;;10547008;28;20201;-66
2021/06/21 21:19:19;;;;;;;16.83;3.20;;;;;;;;;;10549526;28;20602;-68
2021/06/21 21:24:24;;;;;;;10.33;3.00;;;;;;;;;;10519406;28;20579;-71
2021/06/21 21:29:26;;;;;;;7.87;2.27;;;;;;;;;;10529531;28;20291;-71
2021/06/21 21:34:31;;;;;;;9.27;2.90;;;;;;;;;;10522805;28;20689;-69
2021/06/21 21:39:34;;;;;;;12.27;3.77;;;;;;;;;;10531741;28;20224;-71
2021/06/21 21:44:37;;;;;;;10.10;3.57;;;;;;;;;;10533120;28;20664;-69
2021/06/21 21:49:40;;;;;;;10.80;5.10;;;;;;;;;;10529592;28;20238;-71
2021/06/21 21:54:43;;;;;;;7.43;3.10;;;;;;;;;;10528873;28;20639;-72
2021/06/21 21:59:46;;;;;;;9.70;2.97;;;;;;;;;;10530240;28;20243;-69
2021/06/21 22:04:50;;;;;;;7.33;2.87;;;;;;;;;;10530898;28;20616;-71
2021/06/21 22:09:52;;;;;;;9.63;3.40;;;;;;;;;;10527284;28;20285;-71
2021/06/21 22:14:55;;;;;;;6.20;2.70;;;;;;;;;;10532781;28;20237;-71
2021/06/21 22:19:59;;;;;;;5.27;2.80;;;;;;;;;;10528728;28;20326;-70
2021/06/21 22:25:01;;;;;;;6.87;2.23;;;;;;;;;;10529645;28;20184;-71
2021/06/21 22:30:04;;;;;;;5.17;2.50;;;;;;;;;;10529371;28;20216;-71
2021/06/21 22:35:10;;;;;;;6.93;2.20;;;;;;;;;;10528195;28;20221;-70
2021/06/21 22:40:13;;;;;;;7.07;2.30;;;;;;;;;;10524564;28;20298;-70
2021/06/21 22:45:16;;;;;;;7.20;2.90;;;;;;;;;;10532341;28;20192;-68
2021/06/21 22:50:20;;;;;;;3.87;2.10;;;;;;;;;;10524619;28;20231;-70
2021/06/21 22:55:23;;;;;;;4.87;2.13;;;;;;;;;;10530097;28;20666;-70
2021/06/21 23:00:27;;;;;;;5.53;2.37;;;;;;;;;;10526739;28;20698;-70
2021/06/21 23:05:31;;;;;;;5.03;2.10;;;;;;;;;;10529536;28;20247;-70
2021/06/21 23:10:34;;;;;;;6.87;2.50;;;;;;;;;;10524621;28;20216;-69
2021/06/21 23:15:36;;;;;;;6.00;2.30;;;;;;;;;;10527952;28;20218;-69
2021/06/21 23:20:40;;;;;;;7.67;2.80;;;;;;;;;;10529973;28;20699;-72
2021/06/21 23:25:43;;;;;;;7.40;2.80;;;;;;;;;;10526750;28;20199;-71
2021/06/21 23:30:45;;;;;;;7.27;2.50;;;;;;;;;;10529781;28;20227;-70
2021/06/21 23:35:49;;;;;;;7.83;2.83;;;;;;;;;;10527107;28;20191;-70
2021/06/21 23:40:52;;;;;;;7.30;2.70;;;;;;;;;;10527372;28;20269;-70
2021/06/21 23:45:54;;;;;;;6.57;2.60;;;;;;;;;;10529825;28;20317;-71
2021/06/21 23:50:58;;;;;;;8.43;2.87;;;;;;;;;;10526790;28;20290;-72
2021/06/21 23:56:01;;;;;;;6.10;2.40;;;;;;;;;;10519836;28;20194;-69
